createdAt,value
2018-05-18T00:01:15.619Z,68.50
2018-05-18T00:03:43.954Z,68.50
2018-05-18T00:06:11.527Z,68.50
2018-05-18T00:08:39.096Z,68.50
2018-05-18T00:11:06.669Z,68.50
2018-05-18T00:13:34.232Z,68.50
2018-05-18T00:16:01.805Z,68.50
2018-05-18T00:18:30.267Z,68.50
2018-05-18T00:20:57.841Z,68.50
2018-05-18T00:23:25.420Z,68.50
2018-05-18T00:25:53.757Z,68.50
2018-05-18T00:28:21.347Z,68.50
2018-05-18T00:30:49.729Z,68.60
2018-05-18T00:33:18.071Z,68.60
2018-05-18T00:35:45.949Z,68.50
2018-05-18T00:38:13.531Z,68.60
2018-05-18T00:40:41.094Z,68.60
2018-05-18T00:43:08.755Z,69.20
2018-05-18T00:45:37.446Z,68.60
2018-05-18T00:48:06.253Z,68.60
2018-05-18T00:50:34.584Z,68.60
2018-05-18T00:53:02.174Z,68.60
2018-05-18T00:55:40.688Z,68.60
2018-05-18T00:58:08.253Z,69.40
2018-05-18T01:00:36.309Z,68.60
2018-05-18T01:03:03.987Z,68.60
2018-05-18T01:05:31.652Z,68.50
2018-05-18T01:07:59.319Z,68.60
2018-05-18T01:10:27.653Z,68.50
2018-05-18T01:12:55.224Z,68.60
2018-05-18T01:15:22.819Z,68.50
2018-05-18T01:17:51.151Z,69.50
2018-05-18T01:20:18.767Z,68.60
2018-05-18T01:22:47.143Z,68.60
2018-05-18T01:25:15.476Z,68.60
2018-05-18T01:27:43.083Z,68.60
2018-05-18T01:30:11.415Z,68.50
2018-05-18T01:32:38.989Z,68.50
2018-05-18T01:35:07.472Z,68.50
2018-05-18T01:37:35.077Z,68.50
2018-05-18T01:40:03.446Z,68.60
2018-05-18T01:42:31.790Z,68.60
2018-05-18T01:44:59.363Z,68.50
2018-05-18T01:47:27.056Z,68.50
2018-05-18T01:49:55.430Z,68.60
2018-05-18T01:52:23.772Z,68.60
2018-05-18T01:54:51.367Z,68.50
2018-05-18T01:57:19.700Z,69.20
2018-05-18T01:59:47.303Z,68.60
2018-05-18T02:02:14.968Z,68.60
2018-05-18T02:04:42.637Z,68.60
2018-05-18T02:07:10.975Z,68.60
2018-05-18T02:09:38.552Z,68.60
2018-05-18T02:12:07.050Z,68.60
2018-05-18T02:14:34.716Z,68.50
2018-05-18T02:17:02.379Z,68.50
2018-05-18T02:19:31.455Z,68.60
2018-05-18T02:21:59.024Z,68.50
2018-05-18T02:24:26.627Z,68.60
2018-05-18T02:26:54.191Z,68.50
2018-05-18T02:29:21.835Z,68.40
2018-05-18T02:31:50.204Z,68.50
2018-05-18T02:34:17.878Z,68.50
2018-05-18T02:36:46.215Z,68.50
2018-05-18T02:39:13.813Z,68.50
2018-05-18T02:41:42.147Z,68.50
2018-05-18T02:44:09.723Z,68.50
2018-05-18T02:46:38.226Z,68.50
2018-05-18T02:49:06.302Z,68.50
2018-05-18T02:51:33.977Z,68.50
2018-05-18T02:54:02.357Z,68.50
2018-05-18T02:56:30.695Z,68.50
2018-05-18T02:58:58.799Z,68.50
2018-05-18T03:01:27.175Z,68.50
2018-05-18T03:03:54.740Z,68.50
2018-05-18T03:06:22.403Z,68.50
2018-05-18T03:08:50.066Z,69.40
2018-05-18T03:11:17.640Z,67.90
2018-05-18T03:13:46.014Z,68.50
2018-05-18T03:16:14.367Z,68.60
2018-05-18T03:18:41.947Z,68.60
2018-05-18T03:21:09.622Z,68.60
2018-05-18T03:23:38.002Z,68.60
2018-05-18T03:26:06.983Z,68.50
2018-05-18T03:28:34.624Z,68.50
2018-05-18T03:31:02.213Z,69.40
2018-05-18T03:33:30.596Z,68.90
2018-05-18T03:35:58.959Z,68.60
2018-05-18T03:38:26.528Z,68.50
2018-05-18T03:40:54.197Z,68.40
2018-05-18T03:43:22.543Z,68.50
2018-05-18T03:45:50.118Z,68.50
2018-05-18T03:48:17.687Z,68.50
2018-05-18T03:50:45.252Z,68.40
2018-05-18T03:53:12.836Z,68.40
2018-05-18T03:55:40.486Z,68.40
2018-05-18T03:58:08.818Z,68.50
2018-05-18T04:00:37.650Z,68.50
2018-05-18T04:03:17.298Z,68.40
2018-05-18T04:05:57.553Z,68.50
2018-05-18T04:08:45.899Z,68.50
2018-05-18T04:11:13.562Z,68.50
2018-05-18T04:13:41.244Z,69.30
2018-05-18T04:16:09.583Z,68.50
2018-05-18T04:18:38.260Z,68.60
2018-05-18T04:21:06.220Z,68.50
2018-05-18T04:23:33.805Z,68.50
2018-05-18T04:26:01.505Z,68.50
2018-05-18T04:28:29.155Z,68.50
2018-05-18T04:30:58.586Z,68.50
2018-05-18T04:33:26.171Z,68.50
2018-05-18T04:35:53.873Z,68.50
2018-05-18T04:38:21.556Z,68.50
2018-05-18T04:40:49.956Z,68.50
2018-05-18T04:43:17.587Z,68.50
2018-05-18T04:45:45.269Z,68.50
2018-05-18T04:48:13.600Z,68.50
2018-05-18T04:50:41.732Z,68.50
2018-05-18T04:53:18.324Z,68.40
2018-05-18T04:55:45.895Z,68.40
2018-05-18T04:58:13.499Z,68.40
2018-05-18T05:00:41.171Z,68.40
2018-05-18T05:03:09.508Z,68.40
2018-05-18T05:05:38.279Z,68.40
2018-05-18T05:08:06.299Z,68.40
2018-05-18T05:10:34.966Z,68.40
2018-05-18T05:13:02.539Z,68.90
2018-05-18T05:15:30.112Z,68.30
2018-05-18T05:17:58.463Z,68.40
2018-05-18T05:20:26.054Z,68.20
2018-05-18T05:22:53.638Z,68.30
2018-05-18T05:25:21.207Z,68.20
2018-05-18T05:27:48.775Z,68.20
2018-05-18T05:30:16.399Z,68.20
2018-05-18T05:32:43.968Z,68.20
2018-05-18T05:35:12.340Z,68.10
2018-05-18T05:37:39.999Z,68.10
2018-05-18T05:40:08.378Z,68.20
2018-05-18T05:42:37.166Z,68.10
2018-05-18T05:45:04.737Z,68.90
2018-05-18T05:47:33.117Z,68.10
2018-05-18T05:50:01.447Z,68.80
2018-05-18T05:52:29.057Z,68.00
2018-05-18T05:54:57.387Z,68.10
2018-05-18T05:57:25.393Z,68.00
2018-05-18T05:59:52.970Z,68.10
2018-05-18T06:02:21.303Z,68.00
2018-05-18T06:04:48.904Z,68.00
2018-05-18T06:07:16.603Z,68.00
2018-05-18T06:09:44.239Z,68.00
2018-05-18T06:12:12.619Z,67.90
2018-05-18T06:14:40.960Z,67.80
2018-05-18T06:17:08.556Z,67.90
2018-05-18T06:19:38.214Z,68.00
2018-05-18T06:22:05.845Z,67.80
2018-05-18T06:24:34.177Z,68.00
2018-05-18T06:27:01.764Z,68.00
2018-05-18T06:29:29.339Z,67.90
2018-05-18T06:31:57.718Z,68.00
2018-05-18T06:34:26.086Z,67.90
2018-05-18T06:36:53.752Z,68.00
2018-05-18T06:39:22.088Z,68.00
2018-05-18T06:41:49.692Z,68.00
2018-05-18T06:44:18.022Z,68.00
2018-05-18T06:46:45.678Z,68.80
2018-05-18T06:49:13.203Z,68.00
2018-05-18T06:51:41.859Z,68.00
2018-05-18T06:54:09.433Z,68.00
2018-05-18T06:56:37.911Z,68.00
2018-05-18T06:59:05.479Z,68.00
2018-05-18T07:01:33.145Z,68.10
2018-05-18T07:04:01.578Z,68.00
2018-05-18T07:06:29.906Z,67.90
2018-05-18T07:08:58.303Z,68.00
2018-05-18T07:11:26.640Z,68.00
2018-05-18T07:13:54.236Z,67.90
2018-05-18T07:16:22.609Z,68.00
2018-05-18T07:18:50.990Z,68.00
2018-05-18T07:21:19.365Z,67.90
2018-05-18T07:23:47.027Z,67.90
2018-05-18T07:26:14.591Z,68.00
2018-05-18T07:28:42.933Z,68.00
2018-05-18T07:31:10.840Z,67.90
2018-05-18T07:33:39.239Z,67.90
2018-05-18T07:36:06.909Z,67.80
2018-05-18T07:38:35.261Z,67.80
2018-05-18T07:41:03.643Z,67.70
2018-05-18T07:43:32.035Z,67.60
2018-05-18T07:46:00.375Z,67.70
2018-05-18T07:48:27.947Z,67.80
2018-05-18T07:50:55.619Z,67.70
2018-05-18T07:53:23.192Z,67.60
2018-05-18T07:55:51.568Z,67.50
2018-05-18T07:58:19.942Z,67.50
2018-05-18T08:00:47.603Z,67.50
2018-05-18T08:03:15.168Z,67.60
2018-05-18T08:05:42.744Z,67.50
2018-05-18T08:08:11.116Z,67.40
2018-05-18T08:10:39.492Z,67.50
2018-05-18T08:13:07.993Z,67.50
2018-05-18T08:15:36.372Z,67.40
2018-05-18T08:18:04.704Z,67.50
2018-05-18T08:20:32.278Z,67.40
2018-05-18T08:22:59.843Z,67.60
2018-05-18T08:25:27.519Z,67.50
2018-05-18T08:27:55.847Z,67.20
2018-05-18T08:30:23.463Z,67.50
2018-05-18T08:32:51.795Z,67.50
2018-05-18T08:35:19.395Z,67.50
2018-05-18T08:37:47.062Z,67.50
2018-05-18T08:40:14.723Z,67.50
2018-05-18T08:42:43.103Z,67.50
2018-05-18T08:45:10.787Z,67.50
2018-05-18T08:47:39.132Z,67.50
2018-05-18T08:50:06.829Z,67.50
2018-05-18T08:52:34.320Z,67.50
2018-05-18T08:55:01.948Z,67.50
2018-05-18T08:57:30.305Z,67.50
2018-05-18T08:59:57.976Z,67.50
2018-05-18T09:02:26.316Z,68.20
2018-05-18T09:04:53.890Z,67.50
2018-05-18T09:07:21.464Z,67.50
2018-05-18T09:09:49.144Z,67.50
2018-05-18T09:12:17.543Z,68.30
2018-05-18T09:14:45.115Z,67.60
2018-05-18T09:17:12.751Z,67.50
2018-05-18T09:19:41.086Z,67.50
2018-05-18T09:22:08.723Z,67.50
2018-05-18T09:24:37.495Z,67.50
2018-05-18T09:27:06.284Z,67.50
2018-05-18T09:29:33.850Z,67.30
2018-05-18T09:32:01.495Z,67.40
2018-05-18T09:34:29.875Z,67.40
2018-05-18T09:36:58.251Z,67.40
2018-05-18T09:39:26.624Z,67.40
2018-05-18T09:41:54.295Z,67.40
2018-05-18T09:44:22.630Z,67.40
2018-05-18T09:46:50.208Z,67.40
2018-05-18T09:49:17.793Z,67.40
2018-05-18T09:51:46.172Z,67.30
2018-05-18T09:54:13.782Z,67.30
2018-05-18T09:56:41.397Z,68.00
2018-05-18T09:59:09.784Z,67.30
2018-05-18T10:01:38.116Z,67.30
2018-05-18T10:04:06.457Z,67.30
2018-05-18T10:06:34.039Z,67.20
2018-05-18T10:09:01.623Z,67.30
2018-05-18T10:11:29.195Z,67.30
2018-05-18T10:13:56.766Z,67.30
2018-05-18T10:16:24.349Z,67.30
2018-05-18T10:18:52.731Z,67.20
2018-05-18T10:21:21.069Z,67.20
2018-05-18T10:23:48.632Z,67.20
2018-05-18T10:26:16.219Z,67.20
2018-05-18T10:28:43.791Z,67.10
2018-05-18T10:31:12.127Z,67.10
2018-05-18T10:33:39.697Z,67.10
2018-05-18T10:36:08.435Z,67.10
2018-05-18T10:38:36.914Z,67.00
2018-05-18T10:41:04.555Z,67.10
2018-05-18T10:43:32.215Z,67.00
2018-05-18T10:45:59.880Z,67.10
2018-05-18T10:48:27.547Z,67.10
2018-05-18T10:50:55.888Z,67.60
2018-05-18T10:53:23.492Z,67.00
2018-05-18T10:55:51.872Z,67.00
2018-05-18T10:58:20.208Z,66.90
2018-05-18T11:00:47.777Z,66.90
2018-05-18T11:03:15.351Z,66.80
2018-05-18T11:05:43.027Z,66.80
2018-05-18T11:08:10.690Z,66.90
2018-05-18T11:10:38.281Z,67.80
2018-05-18T11:13:06.255Z,66.50
2018-05-18T11:15:33.841Z,66.90
2018-05-18T11:18:01.447Z,66.70
2018-05-18T11:20:29.129Z,66.70
2018-05-18T11:22:57.596Z,66.70
2018-05-18T11:25:25.927Z,67.00
2018-05-18T11:27:53.531Z,66.70
2018-05-18T11:30:21.101Z,66.60
2018-05-18T11:32:49.483Z,66.60
2018-05-18T11:35:17.815Z,66.70
2018-05-18T11:37:45.412Z,66.60
2018-05-18T11:40:13.076Z,66.60
2018-05-18T11:42:40.751Z,66.70
2018-05-18T11:45:09.085Z,66.60
2018-05-18T11:47:36.655Z,66.60
2018-05-18T11:50:04.247Z,66.60
2018-05-18T11:52:32.619Z,66.50
2018-05-18T11:55:00.196Z,66.50
2018-05-18T11:57:28.542Z,66.40
2018-05-18T11:59:56.146Z,66.40
2018-05-18T12:02:23.776Z,66.50
2018-05-18T12:04:51.363Z,66.50
2018-05-18T12:07:19.728Z,66.50
2018-05-18T12:09:47.300Z,66.40
2018-05-18T12:12:15.663Z,66.50
2018-05-18T12:14:43.249Z,66.40
2018-05-18T12:17:11.588Z,66.40
2018-05-18T12:19:39.171Z,66.40
2018-05-18T12:22:08.840Z,66.40
2018-05-18T12:24:37.631Z,66.30
2018-05-18T12:27:05.233Z,66.40
2018-05-18T12:29:33.618Z,66.80
2018-05-18T12:32:01.976Z,66.40
2018-05-18T12:34:29.665Z,66.40
2018-05-18T12:36:58.034Z,66.40
2018-05-18T12:39:25.695Z,66.40
2018-05-18T12:41:53.368Z,66.40
2018-05-18T12:44:21.714Z,66.40
2018-05-18T12:46:49.388Z,66.40
2018-05-18T12:49:16.969Z,66.40
2018-05-18T12:51:45.348Z,66.40
2018-05-18T12:54:13.732Z,66.40
2018-05-18T12:56:42.107Z,66.30
2018-05-18T12:59:09.770Z,66.40
2018-05-18T13:01:38.123Z,65.80
2018-05-18T13:04:05.836Z,66.40
2018-05-18T13:06:33.483Z,66.30
2018-05-18T13:09:01.961Z,66.40
2018-05-18T13:11:30.341Z,66.50
2018-05-18T13:13:58.719Z,66.50
2018-05-18T13:16:26.383Z,66.50
2018-05-18T13:18:54.766Z,66.50
2018-05-18T13:21:23.106Z,66.50
2018-05-18T13:23:50.677Z,66.50
2018-05-18T13:26:18.269Z,66.50
2018-05-18T13:28:46.639Z,66.60
2018-05-18T13:31:14.205Z,66.50
2018-05-18T13:33:41.781Z,67.30
2018-05-18T13:36:10.123Z,66.60
2018-05-18T13:38:38.668Z,66.60
2018-05-18T13:41:07.204Z,66.50
2018-05-18T13:43:34.780Z,66.50
2018-05-18T13:46:03.127Z,66.70
2018-05-18T13:48:30.715Z,66.70
2018-05-18T13:50:59.070Z,66.70
2018-05-18T13:53:26.647Z,66.60
2018-05-18T13:55:54.317Z,66.70
2018-05-18T13:58:22.653Z,66.70
2018-05-18T14:00:50.255Z,66.60
2018-05-18T14:03:17.828Z,66.80
2018-05-18T14:05:46.201Z,66.80
2018-05-18T14:08:14.581Z,66.80
2018-05-18T14:10:42.971Z,66.80
2018-05-18T14:13:11.345Z,66.80
2018-05-18T14:15:39.728Z,66.80
2018-05-18T14:18:08.305Z,66.70
2018-05-18T14:20:36.711Z,66.80
2018-05-18T14:23:05.823Z,66.80
2018-05-18T14:25:33.569Z,66.80
2018-05-18T14:28:01.274Z,66.80
2018-05-18T14:30:28.847Z,66.70
2018-05-18T14:32:56.436Z,66.80
2018-05-18T14:35:24.822Z,66.70
2018-05-18T14:37:53.253Z,66.90
2018-05-18T14:40:20.874Z,66.80
2018-05-18T14:42:49.234Z,66.80
2018-05-18T14:45:17.571Z,66.30
2018-05-18T14:47:45.184Z,66.80
2018-05-18T14:50:13.561Z,66.90
2018-05-18T14:52:41.921Z,66.90
2018-05-18T14:55:09.823Z,66.90
2018-05-18T14:57:38.928Z,66.80
2018-05-18T15:00:07.360Z,66.80
2018-05-18T15:02:35.051Z,66.80
2018-05-18T15:05:03.384Z,66.90
2018-05-18T15:07:30.992Z,66.90
2018-05-18T15:09:59.475Z,66.90
2018-05-18T15:12:27.835Z,66.90
2018-05-18T15:14:55.403Z,66.90
2018-05-18T15:17:23.194Z,66.90
2018-05-18T15:19:50.790Z,67.20
2018-05-18T15:22:18.372Z,66.90
2018-05-18T15:24:45.944Z,67.00
2018-05-18T15:27:13.619Z,67.00
2018-05-18T15:29:41.300Z,67.00
2018-05-18T15:32:09.641Z,67.00
2018-05-18T15:34:38.444Z,67.80
2018-05-18T15:37:07.142Z,67.00
2018-05-18T15:39:36.165Z,67.90
2018-05-18T15:42:03.799Z,67.00
2018-05-18T15:44:31.501Z,67.00
2018-05-18T15:46:59.133Z,66.90
2018-05-18T15:49:27.606Z,67.00
2018-05-18T15:51:55.872Z,67.00
2018-05-18T15:54:23.551Z,67.20
2018-05-18T15:56:51.116Z,67.00
2018-05-18T15:59:19.447Z,67.20
2018-05-18T16:01:47.055Z,67.10
2018-05-18T16:04:15.463Z,67.20
2018-05-18T16:06:43.090Z,67.20
2018-05-18T16:09:10.673Z,67.20
2018-05-18T16:11:39.007Z,67.20
2018-05-18T16:14:07.495Z,67.20
2018-05-18T16:16:35.150Z,67.20
2018-05-18T16:19:02.836Z,67.30
2018-05-18T16:21:30.513Z,67.30
2018-05-18T16:23:58.858Z,67.30
2018-05-18T16:26:26.479Z,67.30
2018-05-18T16:28:54.059Z,67.30
2018-05-18T16:31:21.674Z,67.30
2018-05-18T16:33:50.056Z,67.30
2018-05-18T16:36:18.425Z,67.40
2018-05-18T16:38:45.993Z,67.30
2018-05-18T16:41:13.654Z,67.40
2018-05-18T16:43:41.987Z,67.50
2018-05-18T16:46:09.572Z,67.50
2018-05-18T16:48:38.304Z,67.50
2018-05-18T16:51:06.644Z,67.50
2018-05-18T16:53:34.224Z,67.60
2018-05-18T16:56:01.818Z,67.60
2018-05-18T16:58:29.398Z,67.60
2018-05-18T17:00:58.036Z,67.60
2018-05-18T17:03:26.422Z,67.60
2018-05-18T17:05:54.812Z,67.60
2018-05-18T17:08:23.176Z,67.60
2018-05-18T17:10:51.559Z,67.60
2018-05-18T17:13:19.949Z,67.70
2018-05-18T17:15:48.307Z,67.70
2018-05-18T17:18:16.699Z,68.00
2018-05-18T17:20:45.036Z,67.70
2018-05-18T17:23:12.621Z,67.70
2018-05-18T17:25:40.195Z,67.70
2018-05-18T17:28:07.960Z,67.70
2018-05-18T17:30:37.765Z,67.70
2018-05-18T17:33:05.355Z,67.90
2018-05-18T17:35:33.017Z,67.90
2018-05-18T17:38:00.591Z,67.90
2018-05-18T17:40:28.234Z,67.70
2018-05-18T17:42:56.572Z,67.90
2018-05-18T17:45:24.175Z,67.90
2018-05-18T17:47:52.551Z,67.90
2018-05-18T17:50:21.020Z,67.90
2018-05-18T17:52:48.695Z,67.90
2018-05-18T17:55:17.034Z,68.00
2018-05-18T17:57:44.633Z,68.00
2018-05-18T18:00:13.014Z,68.00
2018-05-18T18:02:41.364Z,67.90
2018-05-18T18:05:09.031Z,67.90
2018-05-18T18:07:37.520Z,68.20
2018-05-18T18:10:05.087Z,68.40
2018-05-18T18:12:32.766Z,68.70
2018-05-18T18:15:01.103Z,69.10
2018-05-18T18:17:28.668Z,69.00
2018-05-18T18:19:56.459Z,69.00
2018-05-18T18:22:24.055Z,69.20
2018-05-18T18:24:51.671Z,69.30
2018-05-18T18:27:19.522Z,69.40
2018-05-18T18:29:49.489Z,69.70
2018-05-18T18:32:17.865Z,69.20
2018-05-18T18:34:46.219Z,68.90
2018-05-18T18:37:13.823Z,69.00
2018-05-18T18:39:41.439Z,68.80
2018-05-18T18:42:09.280Z,68.70
2018-05-18T18:44:37.981Z,68.60
2018-05-18T18:47:07.279Z,68.50
2018-05-18T18:49:34.872Z,68.50
2018-05-18T18:52:03.231Z,68.40
2018-05-18T18:54:30.815Z,68.40
2018-05-18T18:57:00.405Z,68.40
2018-05-18T18:59:28.132Z,68.40
2018-05-18T19:01:56.472Z,68.40
2018-05-18T19:04:24.826Z,68.40
2018-05-18T19:06:52.453Z,68.40
2018-05-18T19:09:20.093Z,68.40
2018-05-18T19:11:48.433Z,68.50
2018-05-18T19:14:16.120Z,68.40
2018-05-18T19:16:44.571Z,68.40
2018-05-18T19:19:30.263Z,68.50
2018-05-18T19:21:57.937Z,68.40
2018-05-18T19:24:26.329Z,68.50
2018-05-18T19:26:54.670Z,68.40
2018-05-18T19:29:27.637Z,68.40
2018-05-18T19:31:56.085Z,68.40
2018-05-18T19:34:23.735Z,68.40
2018-05-18T19:36:51.312Z,68.40
2018-05-18T19:39:19.645Z,68.50
2018-05-18T19:41:47.249Z,68.40
2018-05-18T19:44:15.599Z,68.50
2018-05-18T19:46:43.183Z,68.50
2018-05-18T19:49:11.563Z,68.50
2018-05-18T19:51:40.337Z,68.50
2018-05-18T19:54:08.301Z,68.50
2018-05-18T19:56:36.306Z,68.50
2018-05-18T19:59:04.643Z,68.50
2018-05-18T20:01:32.228Z,68.50
2018-05-18T20:03:59.883Z,68.60
2018-05-18T20:06:28.278Z,68.50
2018-05-18T20:08:56.658Z,68.50
2018-05-18T20:11:25.037Z,68.50
2018-05-18T20:13:53.377Z,68.60
2018-05-18T20:16:20.976Z,68.50
2018-05-18T20:18:49.320Z,68.60
2018-05-18T20:21:16.906Z,68.50
2018-05-18T20:23:44.560Z,68.50
2018-05-18T20:26:12.126Z,68.60
2018-05-18T20:28:39.691Z,68.60
2018-05-18T20:31:08.593Z,68.50
2018-05-18T20:33:37.895Z,68.70
2018-05-18T20:36:06.969Z,68.60
2018-05-18T20:38:34.647Z,68.50
2018-05-18T20:41:02.319Z,68.50
2018-05-18T20:43:30.693Z,68.70
2018-05-18T20:45:58.261Z,68.50
2018-05-18T20:48:26.592Z,68.60
2018-05-18T20:50:54.194Z,68.50
2018-05-18T20:53:21.761Z,68.50
2018-05-18T20:55:50.091Z,68.60
2018-05-18T20:58:17.695Z,68.60
2018-05-18T21:00:45.259Z,68.50
2018-05-18T21:03:12.942Z,68.60
2018-05-18T21:05:40.565Z,68.60
2018-05-18T21:08:08.163Z,68.60
2018-05-18T21:10:36.258Z,68.60
2018-05-18T21:13:03.910Z,68.60
2018-05-18T21:15:31.539Z,68.60
2018-05-18T21:17:59.207Z,68.60
2018-05-18T21:20:26.775Z,68.60
2018-05-18T21:22:55.111Z,68.60
2018-05-18T21:25:22.707Z,68.60
2018-05-18T21:27:50.375Z,68.60
2018-05-18T21:30:18.716Z,68.70
2018-05-18T21:32:46.286Z,68.60
2018-05-18T21:35:13.871Z,68.70
2018-05-18T21:37:41.439Z,68.60
2018-05-18T21:40:09.819Z,68.60
2018-05-18T21:42:38.189Z,68.60
2018-05-18T21:45:07.457Z,68.90
2018-05-18T21:47:35.032Z,68.60
2018-05-18T21:50:02.601Z,68.60
2018-05-18T21:52:30.169Z,68.60
2018-05-18T21:54:57.746Z,68.60
2018-05-18T21:57:26.103Z,68.60
2018-05-18T21:59:53.783Z,68.60
2018-05-18T22:02:21.348Z,68.60
2018-05-18T22:04:49.722Z,68.60
2018-05-18T22:07:17.286Z,68.60
2018-05-18T22:09:45.872Z,68.70
2018-05-18T22:12:14.253Z,68.60
2018-05-18T22:14:42.596Z,68.70
2018-05-18T22:17:10.191Z,68.70
2018-05-18T22:19:38.670Z,68.70
2018-05-18T22:22:07.552Z,68.80
2018-05-18T22:24:35.119Z,69.60
2018-05-18T22:27:02.792Z,68.70
2018-05-18T22:29:31.168Z,68.60
2018-05-18T22:31:59.547Z,69.10
2018-05-18T22:34:27.116Z,68.60
2018-05-18T22:36:55.450Z,68.70
2018-05-18T22:39:23.016Z,68.60
2018-05-18T22:41:50.608Z,68.50
2018-05-18T22:44:18.280Z,68.60
2018-05-18T22:46:46.656Z,68.70
2018-05-18T22:49:15.033Z,68.60
2018-05-18T22:51:42.699Z,68.70
2018-05-18T22:54:11.080Z,68.70
2018-05-18T22:56:39.453Z,68.60
2018-05-18T22:59:07.959Z,68.60
2018-05-18T23:01:37.626Z,68.60
2018-05-18T23:04:05.192Z,68.60
2018-05-18T23:06:32.772Z,68.60
2018-05-18T23:09:00.439Z,68.60
2018-05-18T23:11:28.789Z,68.60
2018-05-18T23:13:56.357Z,68.60
2018-05-18T23:16:24.039Z,68.70
2018-05-18T23:18:51.603Z,68.60
2018-05-18T23:21:19.945Z,68.60
2018-05-18T23:23:47.512Z,68.50
2018-05-18T23:26:15.083Z,68.70
2018-05-18T23:28:43.415Z,68.70
2018-05-18T23:31:10.979Z,68.50
2018-05-18T23:33:38.600Z,68.60
2018-05-18T23:36:07.005Z,68.50
2018-05-18T23:38:34.572Z,68.50
2018-05-18T23:41:02.152Z,68.50
2018-05-18T23:43:29.735Z,68.50
2018-05-18T23:45:57.307Z,68.50
2018-05-18T23:48:24.991Z,68.50
2018-05-18T23:50:52.556Z,68.50
2018-05-18T23:53:20.887Z,68.50
2018-05-18T23:55:48.491Z,68.50
2018-05-18T23:58:16.065Z,68.50
